createdAt,value
2023-05-13T00:00:42.112Z,94694.16
2023-05-13T00:03:09.822Z,94700.66
2023-05-13T00:05:38.454Z,94697.38
2023-05-13T00:08:07.980Z,94705.03
2023-05-13T00:10:35.999Z,94699.59
2023-05-13T00:13:03.703Z,94699.34
2023-05-13T00:15:31.320Z,94700.41
2023-05-13T00:17:58.996Z,94705.84
2023-05-13T00:20:26.689Z,94703.63
2023-05-13T00:22:54.301Z,94706.09
2023-05-13T00:25:23.239Z,94719.13
2023-05-13T00:27:51.265Z,94713.94
2023-05-13T00:30:18.995Z,94716.31
2023-05-13T00:32:46.711Z,94719.06
2023-05-13T00:35:14.432Z,94714.09
2023-05-13T00:37:42.192Z,94715.50
2023-05-13T00:40:18.084Z,94723.91
2023-05-13T00:42:47.074Z,94713.28
2023-05-13T00:45:15.038Z,94717.84
2023-05-13T00:47:43.052Z,94715.69
2023-05-13T00:50:11.573Z,94714.34
2023-05-13T00:52:40.140Z,94711.38
2023-05-13T00:55:09.128Z,94714.59
2023-05-13T00:57:37.305Z,94705.78
2023-05-13T01:00:07.928Z,94707.94
2023-05-13T01:02:40.625Z,94706.53
2023-05-13T01:05:15.354Z,94712.81
2023-05-13T01:07:47.747Z,94709.50
2023-05-13T01:10:21.944Z,94705.97
2023-05-13T01:12:54.153Z,94705.88
2023-05-13T01:15:25.357Z,94713.53
2023-05-13T01:17:58.664Z,94711.97
2023-05-13T01:20:28.394Z,94716.50
2023-05-13T01:22:57.576Z,94716.03
2023-05-13T01:25:26.122Z,94711.88
2023-05-13T01:27:53.807Z,94712.97
2023-05-13T01:30:22.023Z,94724.91
2023-05-13T01:32:50.447Z,94715.69
2023-05-13T01:35:18.834Z,94719.13
2023-05-13T01:37:46.468Z,94720.78
2023-05-13T01:40:31.239Z,94724.34
2023-05-13T01:42:59.760Z,94716.19
2023-05-13T01:45:28.915Z,94717.56
2023-05-13T01:47:56.641Z,94712.38
2023-05-13T01:50:24.569Z,94719.22
2023-05-13T01:52:52.388Z,94717.56
2023-05-13T01:55:21.405Z,94715.69
2023-05-13T01:57:49.182Z,94719.78
2023-05-13T02:00:17.582Z,94709.72
2023-05-13T02:02:46.970Z,94719.56
2023-05-13T02:05:14.776Z,94718.50
2023-05-13T02:07:42.552Z,94716.03
2023-05-13T02:10:11.124Z,94718.50
2023-05-13T02:12:40.295Z,94714.69
2023-05-13T02:15:08.716Z,94719.06
2023-05-13T02:17:36.364Z,94704.66
2023-05-13T02:20:04.211Z,94716.25
2023-05-13T02:22:31.816Z,94707.78
2023-05-13T02:24:59.403Z,94711.81
2023-05-13T02:27:27.046Z,94709.09
2023-05-13T02:29:55.977Z,94709.09
2023-05-13T02:32:23.570Z,94710.75
2023-05-13T02:34:51.178Z,94706.13
2023-05-13T02:37:18.789Z,94704.97
2023-05-13T02:39:46.370Z,94700.75
2023-05-13T02:42:13.974Z,94707.63
2023-05-13T02:44:41.595Z,94706.53
2023-05-13T02:47:10.577Z,94707.63
2023-05-13T02:49:38.197Z,94712.69
2023-05-13T02:52:06.643Z,94708.34
2023-05-13T02:54:34.224Z,94703.16
2023-05-13T02:57:01.850Z,94699.34
2023-05-13T02:59:29.436Z,94704.78
2023-05-13T03:01:57.022Z,94708.59
2023-05-13T03:04:26.166Z,94706.13
2023-05-13T03:06:54.018Z,94703.56
2023-05-13T03:09:21.634Z,94706.28
2023-05-13T03:11:49.403Z,94704.38
2023-05-13T03:14:17.106Z,94709.81
2023-05-13T03:16:45.823Z,94715.00
2023-05-13T03:19:13.490Z,94715.81
2023-05-13T03:21:42.473Z,94717.47
2023-05-13T03:24:10.069Z,94717.63
2023-05-13T03:26:37.696Z,94716.81
2023-05-13T03:29:05.337Z,94718.81
2023-05-13T03:31:33.150Z,94722.91
2023-05-13T03:34:00.865Z,94721.25
2023-05-13T03:36:28.433Z,94719.94
2023-05-13T03:38:57.354Z,94717.81
2023-05-13T03:41:24.971Z,94725.38
2023-05-13T03:43:52.572Z,94719.94
2023-05-13T03:46:20.184Z,94721.00
2023-05-13T03:48:47.828Z,94728.59
2023-05-13T03:51:15.646Z,94731.47
2023-05-13T03:53:43.293Z,94733.69
2023-05-13T03:56:12.268Z,94728.00
2023-05-13T03:58:39.924Z,94734.03
2023-05-13T04:01:07.973Z,94737.91
2023-05-13T04:03:35.927Z,94735.78
2023-05-13T04:06:03.530Z,94749.94
2023-05-13T04:08:31.147Z,94744.00
2023-05-13T04:10:58.736Z,94748.88
2023-05-13T04:13:27.754Z,94748.03
2023-05-13T04:15:55.430Z,94748.63
2023-05-13T04:18:23.103Z,94751.91
2023-05-13T04:20:50.709Z,94751.91
2023-05-13T04:23:18.357Z,94752.97
2023-05-13T04:25:51.614Z,94751.09
2023-05-13T04:28:19.310Z,94750.00
2023-05-13T04:30:48.317Z,94758.91
2023-05-13T04:33:16.644Z,94756.41
2023-05-13T04:35:44.259Z,94765.66
2023-05-13T04:38:13.136Z,94754.13
2023-05-13T04:40:40.738Z,94760.94
2023-05-13T04:43:08.377Z,94768.88
2023-05-13T04:45:37.007Z,94772.16
2023-05-13T04:48:06.421Z,94767.28
2023-05-13T04:50:34.110Z,94765.19
2023-05-13T04:53:02.216Z,94764.56
2023-05-13T04:55:29.973Z,94767.91
2023-05-13T04:57:57.619Z,94771.19
2023-05-13T05:00:25.296Z,94774.97
2023-05-13T05:02:52.993Z,94764.25
2023-05-13T05:05:21.919Z,94763.19
2023-05-13T05:07:49.524Z,94763.44
2023-05-13T05:10:17.289Z,94773.25
2023-05-13T05:12:44.891Z,94771.09
2023-05-13T05:15:15.725Z,94773.09
2023-05-13T05:17:43.657Z,94779.59
2023-05-13T05:20:13.362Z,94782.53
2023-05-13T05:22:42.865Z,94787.72
2023-05-13T05:25:11.645Z,94782.53
2023-05-13T05:27:39.370Z,94785.81
2023-05-13T05:30:08.180Z,94789.97
2023-05-13T05:32:36.012Z,94789.16
2023-05-13T05:35:03.957Z,94789.16
2023-05-13T05:37:31.944Z,94788.31
2023-05-13T05:40:00.853Z,94792.03
2023-05-13T05:42:28.497Z,94790.94
2023-05-13T05:44:56.092Z,94791.28
2023-05-13T05:47:23.792Z,94797.31
2023-05-13T05:49:51.418Z,94792.94
2023-05-13T05:52:19.112Z,94792.44
2023-05-13T05:54:46.753Z,94793.84
2023-05-13T05:57:15.729Z,94792.53
2023-05-13T05:59:43.341Z,94795.25
2023-05-13T06:02:11.182Z,94796.56
2023-05-13T06:04:38.930Z,94801.97
2023-05-13T06:07:07.419Z,94798.22
2023-05-13T06:09:35.029Z,94797.97
2023-05-13T06:12:02.722Z,94795.25
2023-05-13T06:14:31.651Z,94797.41
2023-05-13T06:16:59.320Z,94801.84
2023-05-13T06:19:26.933Z,94801.00
2023-05-13T06:21:54.631Z,94801.34
2023-05-13T06:24:22.246Z,94799.19
2023-05-13T06:26:49.881Z,94803.81
2023-05-13T06:29:17.807Z,94803.25
2023-05-13T06:31:46.866Z,94811.75
2023-05-13T06:34:16.679Z,94805.81
2023-05-13T06:36:44.796Z,94814.53
2023-05-13T06:39:13.401Z,94806.53
2023-05-13T06:41:41.384Z,94807.34
2023-05-13T06:44:09.047Z,94805.47
2023-05-13T06:46:36.705Z,94804.63
2023-05-13T06:49:05.748Z,94805.16
2023-05-13T06:51:34.866Z,94815.75
2023-05-13T06:54:02.525Z,94811.97
2023-05-13T06:56:30.956Z,94812.78
2023-05-13T06:58:58.520Z,94806.28
2023-05-13T07:01:27.914Z,94824.03
2023-05-13T07:03:55.706Z,94814.78
2023-05-13T07:06:24.733Z,94815.34
2023-05-13T07:08:52.358Z,94816.19
2023-05-13T07:11:20.009Z,94819.50
2023-05-13T07:13:47.784Z,94823.59
2023-05-13T07:16:15.539Z,94825.25
2023-05-13T07:18:43.346Z,94833.19
2023-05-13T07:21:11.135Z,94829.88
2023-05-13T07:23:40.082Z,94834.00
2023-05-13T07:26:07.704Z,94838.63
2023-05-13T07:28:35.311Z,94833.19
2023-05-13T07:31:02.960Z,94835.16
2023-05-13T07:33:31.393Z,94836.31
2023-05-13T07:35:59.050Z,94838.78
2023-05-13T07:38:26.709Z,94844.22
2023-05-13T07:40:55.958Z,94835.00
2023-05-13T07:43:24.154Z,94838.31
2023-05-13T07:45:51.825Z,94835.34
2023-05-13T07:48:19.628Z,94842.16
2023-05-13T07:50:47.371Z,94836.25
2023-05-13T07:53:15.473Z,94842.84
2023-05-13T07:55:44.214Z,94841.84
2023-05-13T07:58:13.211Z,94838.63
2023-05-13T08:00:40.925Z,94843.00
2023-05-13T08:03:08.687Z,94846.38
2023-05-13T08:05:36.621Z,94841.78
2023-05-13T08:08:04.478Z,94843.16
2023-05-13T08:10:32.088Z,94841.38
2023-05-13T08:13:00.986Z,94852.84
2023-05-13T08:15:29.952Z,94845.50
2023-05-13T08:17:57.667Z,94847.75
2023-05-13T08:20:29.639Z,94843.44
2023-05-13T08:22:58.193Z,94846.22
2023-05-13T08:25:26.038Z,94850.22
2023-05-13T08:27:53.637Z,94848.06
2023-05-13T08:30:21.206Z,94854.81
2023-05-13T08:32:50.207Z,94853.84
2023-05-13T08:35:17.870Z,94855.25
2023-05-13T08:37:45.515Z,94852.84
2023-05-13T08:40:13.353Z,94856.22
2023-05-13T08:42:44.967Z,94856.28
2023-05-13T08:45:12.778Z,94857.63
2023-05-13T08:47:46.512Z,94858.19
2023-05-13T08:50:15.992Z,94853.31
2023-05-13T08:52:44.633Z,94866.13
2023-05-13T08:55:12.388Z,94857.69
2023-05-13T08:57:40.458Z,94870.16
2023-05-13T09:00:09.216Z,94867.66
2023-05-13T09:02:36.843Z,94865.38
2023-05-13T09:05:07.392Z,94864.31
2023-05-13T09:07:36.965Z,94862.63
2023-05-13T09:10:04.815Z,94867.03
2023-05-13T09:12:48.987Z,94872.78
2023-05-13T09:15:17.948Z,94875.03
2023-05-13T09:17:46.650Z,94870.47
2023-05-13T09:20:16.129Z,94870.38
2023-05-13T09:22:48.484Z,94870.16
2023-05-13T09:25:17.051Z,94879.31
2023-05-13T09:27:47.324Z,94867.66
2023-05-13T09:30:15.056Z,94871.06
2023-05-13T09:32:43.264Z,94872.88
2023-05-13T09:35:16.517Z,94868.09
2023-05-13T09:37:47.716Z,94873.88
2023-05-13T09:40:16.960Z,94868.75
2023-05-13T09:42:45.605Z,94878.38
2023-05-13T09:45:14.765Z,94868.91
2023-05-13T09:47:42.723Z,94866.94
2023-05-13T09:50:11.317Z,94873.25
2023-05-13T09:52:39.932Z,94873.84
2023-05-13T09:55:11.076Z,94871.13
2023-05-13T09:57:40.795Z,94867.63
2023-05-13T10:00:17.982Z,94870.09
2023-05-13T10:02:52.967Z,94875.63
2023-05-13T10:05:20.702Z,94875.97
2023-05-13T10:07:48.336Z,94879.59
2023-05-13T10:10:17.301Z,94882.94
2023-05-13T10:12:45.063Z,94883.34
2023-05-13T10:15:12.831Z,94890.19
2023-05-13T10:17:40.931Z,94896.13
2023-05-13T10:20:08.904Z,94887.66
2023-05-13T10:22:37.210Z,94894.56
2023-05-13T10:25:05.784Z,94898.13
2023-05-13T10:27:34.853Z,94894.94
2023-05-13T10:30:05.008Z,94889.94
2023-05-13T10:32:32.724Z,94889.38
2023-05-13T10:35:04.075Z,94891.28
2023-05-13T10:37:58.400Z,94890.13
2023-05-13T10:41:04.078Z,94882.31
2023-05-13T10:43:33.702Z,94885.50
2023-05-13T10:46:02.521Z,94883.94
2023-05-13T10:48:40.092Z,94884.72
2023-05-13T10:51:08.828Z,94884.97
2023-05-13T10:53:38.708Z,94884.59
2023-05-13T10:56:08.045Z,94884.84
2023-05-13T10:58:38.264Z,94885.91
2023-05-13T11:01:17.829Z,94882.31
2023-05-13T11:03:53.900Z,94893.44
2023-05-13T11:06:23.604Z,94889.03
2023-05-13T11:08:55.935Z,94896.53
2023-05-13T11:11:27.418Z,94893.25
2023-05-13T11:13:57.721Z,94890.84
2023-05-13T11:16:25.522Z,94894.22
2023-05-13T11:18:53.811Z,94891.19
2023-05-13T11:21:31.085Z,94905.66
2023-05-13T11:24:00.049Z,94910.09
2023-05-13T11:26:27.788Z,94914.41
2023-05-13T11:28:58.459Z,94907.63
2023-05-13T11:31:28.785Z,94910.97
2023-05-13T11:34:10.494Z,94915.91
2023-05-13T11:36:39.770Z,94909.63
2023-05-13T11:39:11.057Z,94917.25
2023-05-13T11:41:40.926Z,94918.84
2023-05-13T11:44:10.410Z,94914.66
2023-05-13T11:46:38.070Z,94913.25
2023-05-13T11:49:07.401Z,94920.94
2023-05-13T11:51:35.398Z,94917.72
2023-05-13T11:54:04.185Z,94918.31
2023-05-13T11:56:32.165Z,94913.63
2023-05-13T11:59:16.628Z,94918.31
2023-05-13T12:01:44.793Z,94919.47
2023-05-13T12:04:12.620Z,94922.81
2023-05-13T12:06:46.126Z,94922.91
2023-05-13T12:09:13.902Z,94919.22
2023-05-13T12:11:42.274Z,94916.28
2023-05-13T12:14:10.175Z,94922.34
2023-05-13T12:16:39.138Z,94923.19
2023-05-13T12:19:07.211Z,94922.16
2023-05-13T12:21:35.401Z,94924.03
2023-05-13T12:24:03.641Z,94919.47
2023-05-13T12:26:31.702Z,94915.91
2023-05-13T12:29:00.153Z,94907.22
2023-05-13T12:31:27.921Z,94905.09
2023-05-13T12:33:56.898Z,94911.31
2023-05-13T12:36:32.095Z,94911.66
2023-05-13T12:39:01.280Z,94915.59
2023-05-13T12:41:30.702Z,94910.72
2023-05-13T12:44:00.041Z,94907.44
2023-05-13T12:46:27.908Z,94906.09
2023-05-13T12:48:59.104Z,94908.59
2023-05-13T12:51:27.109Z,94917.41
2023-05-13T12:53:55.650Z,94918.53
2023-05-13T12:56:23.604Z,94919.34
2023-05-13T12:58:52.018Z,94921.75
2023-05-13T13:01:20.060Z,94921.13
2023-05-13T13:03:47.745Z,94928.72
2023-05-13T13:06:17.324Z,94929.91
2023-05-13T13:08:44.942Z,94936.59
2023-05-13T13:11:14.961Z,94938.31
2023-05-13T13:13:42.638Z,94936.13
2023-05-13T13:16:10.291Z,94941.03
2023-05-13T13:18:37.974Z,94941.00
2023-05-13T13:21:07.460Z,94944.75
2023-05-13T13:23:36.403Z,94942.13
2023-05-13T13:26:04.302Z,94944.88
2023-05-13T13:28:32.134Z,94940.06
2023-05-13T13:31:00.170Z,94937.91
2023-05-13T13:33:28.334Z,94935.16
2023-05-13T13:35:55.975Z,94928.34
2023-05-13T13:38:23.618Z,94923.47
2023-05-13T13:40:52.549Z,94920.78
2023-05-13T13:43:20.221Z,94911.81
2023-05-13T13:45:48.015Z,94924.94
2023-05-13T13:48:15.844Z,94916.75
2023-05-13T13:50:44.921Z,94914.94
2023-05-13T13:53:14.357Z,94915.25
2023-05-13T13:55:41.970Z,94917.53
2023-05-13T13:58:10.883Z,94907.50
2023-05-13T14:00:38.613Z,94910.03
2023-05-13T14:03:06.338Z,94908.69
2023-05-13T14:05:34.057Z,94909.53
2023-05-13T14:08:01.634Z,94906.84
2023-05-13T14:10:29.281Z,94912.63
2023-05-13T14:12:56.830Z,94910.41
2023-05-13T14:15:28.732Z,94905.44
2023-05-13T14:17:56.551Z,94910.22
2023-05-13T14:20:24.914Z,94902.22
2023-05-13T14:22:52.553Z,94911.59
2023-05-13T14:25:20.164Z,94905.50
2023-05-13T14:27:47.769Z,94905.03
2023-05-13T14:30:15.499Z,94906.72
2023-05-13T14:32:45.060Z,94912.44
2023-05-13T14:35:12.866Z,94908.38
2023-05-13T14:37:40.449Z,94902.38
2023-05-13T14:40:09.621Z,94898.56
2023-05-13T14:42:37.263Z,94906.81
2023-05-13T14:45:05.997Z,94895.38
2023-05-13T14:47:33.854Z,94895.16
2023-05-13T14:50:02.898Z,94903.97
2023-05-13T14:52:30.575Z,94892.72
2023-05-13T14:54:58.172Z,94893.38
2023-05-13T14:57:26.740Z,94893.66
2023-05-13T14:59:54.282Z,94891.25
2023-05-13T15:02:21.951Z,94893.16
2023-05-13T15:04:49.692Z,94888.25
2023-05-13T15:07:18.830Z,94891.78
2023-05-13T15:09:46.421Z,94887.44
2023-05-13T15:12:14.049Z,94892.13
2023-05-13T15:14:41.630Z,94886.94
2023-05-13T15:17:11.838Z,94878.75
2023-05-13T15:19:39.699Z,94878.75
2023-05-13T15:22:07.300Z,94885.38
2023-05-13T15:24:37.349Z,94882.91
2023-05-13T15:27:05.149Z,94882.06
2023-05-13T15:29:32.876Z,94877.97
2023-05-13T15:32:00.523Z,94872.47
2023-05-13T15:34:28.182Z,94869.75
2023-05-13T15:36:55.786Z,94877.19
2023-05-13T15:39:23.370Z,94870.88
2023-05-13T15:41:52.368Z,94874.47
2023-05-13T15:44:21.316Z,94869.53
2023-05-13T15:46:49.844Z,94867.03
2023-05-13T15:49:17.649Z,94870.34
2023-05-13T15:51:45.612Z,94870.66
2023-05-13T15:54:13.305Z,94870.91
2023-05-13T15:56:40.882Z,94872.28
2023-05-13T15:59:09.816Z,94871.19
2023-05-13T16:01:39.231Z,94869.81
2023-05-13T16:04:06.950Z,94867.31
2023-05-13T16:06:34.713Z,94862.16
2023-05-13T16:09:03.972Z,94858.56
2023-05-13T16:11:31.635Z,94858.84
2023-05-13T16:13:59.519Z,94867.34
2023-05-13T16:16:28.634Z,94856.38
2023-05-13T16:18:56.354Z,94859.13
2023-05-13T16:21:24.140Z,94860.22
2023-05-13T16:23:51.788Z,94855.22
2023-05-13T16:26:19.419Z,94854.69
2023-05-13T16:28:47.023Z,94855.25
2023-05-13T16:31:14.650Z,94852.81
2023-05-13T16:33:43.529Z,94847.06
2023-05-13T16:36:11.884Z,94848.16
2023-05-13T16:38:41.282Z,94847.56
2023-05-13T16:41:09.003Z,94843.44
2023-05-13T16:43:36.619Z,94840.69
2023-05-13T16:46:04.372Z,94847.25
2023-05-13T16:48:31.996Z,94840.41
2023-05-13T16:51:01.096Z,94837.41
2023-05-13T16:53:28.683Z,94841.22
2023-05-13T16:55:56.305Z,94832.75
2023-05-13T16:58:23.974Z,94831.63
2023-05-13T17:00:52.369Z,94836.31
2023-05-13T17:03:20.153Z,94832.78
2023-05-13T17:05:47.841Z,94832.25
2023-05-13T17:08:18.845Z,94832.84
2023-05-13T17:10:46.491Z,94827.66
2023-05-13T17:13:14.088Z,94823.53
2023-05-13T17:15:41.715Z,94830.91
2023-05-13T17:18:09.309Z,94832.28
2023-05-13T17:20:36.958Z,94826.78
2023-05-13T17:23:04.569Z,94821.91
2023-05-13T17:25:33.545Z,94826.78
2023-05-13T17:28:01.158Z,94830.91
2023-05-13T17:30:28.771Z,94833.38
2023-05-13T17:32:56.452Z,94828.97
2023-05-13T17:35:24.100Z,94823.50
2023-05-13T17:37:51.674Z,94839.09
2023-05-13T17:40:19.271Z,94841.00
2023-05-13T17:42:48.211Z,94835.25
2023-05-13T17:45:15.925Z,94827.28
2023-05-13T17:47:43.598Z,94836.03
2023-05-13T17:50:13.218Z,94831.66
2023-05-13T17:52:41.407Z,94836.03
2023-05-13T17:55:09.929Z,94827.81
2023-05-13T17:57:37.573Z,94831.94
2023-05-13T18:00:08.232Z,94836.28
2023-05-13T18:02:36.167Z,94834.13
2023-05-13T18:05:03.925Z,94834.34
2023-05-13T18:07:31.699Z,94838.72
2023-05-13T18:09:59.513Z,94840.38
2023-05-13T18:12:27.176Z,94832.66
2023-05-13T18:14:54.825Z,94846.22
2023-05-13T18:17:23.802Z,94838.53
2023-05-13T18:19:51.733Z,94837.69
2023-05-13T18:22:19.387Z,94841.22
2023-05-13T18:24:47.629Z,94848.31
2023-05-13T18:27:15.303Z,94848.28
2023-05-13T18:29:42.922Z,94848.84
2023-05-13T18:32:10.554Z,94853.75
2023-05-13T18:34:39.508Z,94848.22
2023-05-13T18:37:07.336Z,94856.72
2023-05-13T18:39:34.941Z,94858.31
2023-05-13T18:42:02.584Z,94852.50
2023-05-13T18:44:30.613Z,94854.06
2023-05-13T18:46:58.190Z,94859.25
2023-05-13T18:49:27.321Z,94852.19
2023-05-13T18:51:56.287Z,94862.25
2023-05-13T18:54:25.662Z,94864.00
2023-05-13T18:56:53.279Z,94860.16
2023-05-13T18:59:20.927Z,94861.47
2023-05-13T19:01:48.666Z,94861.34
2023-05-13T19:04:16.530Z,94862.16
2023-05-13T19:06:44.266Z,94867.03
2023-05-13T19:09:13.260Z,94866.16
2023-05-13T19:11:41.006Z,94867.22
2023-05-13T19:14:08.655Z,94868.53
2023-05-13T19:16:36.341Z,94873.88
2023-05-13T19:19:04.119Z,94871.91
2023-05-13T19:21:31.749Z,94876.03
2023-05-13T19:23:59.521Z,94879.63
2023-05-13T19:26:28.506Z,94870.88
2023-05-13T19:28:56.320Z,94882.03
2023-05-13T19:31:24.597Z,94882.25
2023-05-13T19:33:52.324Z,94876.84
2023-05-13T19:36:19.934Z,94873.59
2023-05-13T19:38:47.564Z,94876.53
2023-05-13T19:41:15.159Z,94871.13
2023-05-13T19:43:44.125Z,94881.22
2023-05-13T19:46:11.967Z,94874.13
2023-05-13T19:48:39.570Z,94869.72
2023-05-13T19:51:07.159Z,94879.88
2023-05-13T19:53:34.784Z,94878.50
2023-05-13T19:56:02.487Z,94870.25
2023-05-13T19:58:30.142Z,94873.06
2023-05-13T20:00:59.204Z,94866.25
2023-05-13T20:03:27.068Z,94861.09
2023-05-13T20:05:54.760Z,94864.91
2023-05-13T20:08:22.934Z,94859.47
2023-05-13T20:10:50.634Z,94859.47
2023-05-13T20:13:18.240Z,94854.00
2023-05-13T20:15:45.894Z,94851.34
2023-05-13T20:18:14.907Z,94852.97
2023-05-13T20:20:42.583Z,94850.75
2023-05-13T20:23:10.240Z,94849.69
2023-05-13T20:25:37.835Z,94850.56
2023-05-13T20:28:05.600Z,94853.03
2023-05-13T20:30:33.187Z,94853.03
2023-05-13T20:33:01.060Z,94846.25
2023-05-13T20:35:30.272Z,94840.22
2023-05-13T20:37:58.528Z,94845.97
2023-05-13T20:40:26.183Z,94848.47
2023-05-13T20:42:55.692Z,94854.47
2023-05-13T20:45:23.452Z,94849.28
2023-05-13T20:47:51.140Z,94848.72
2023-05-13T20:50:18.917Z,94842.16
2023-05-13T20:52:47.878Z,94832.03
2023-05-13T20:55:15.745Z,94827.78
2023-05-13T20:57:44.149Z,94822.03
2023-05-13T21:00:13.004Z,94828.03
2023-05-13T21:02:41.656Z,94837.59
2023-05-13T21:05:09.656Z,94826.09
2023-05-13T21:07:37.286Z,94828.00
2023-05-13T21:10:07.552Z,94823.34
2023-05-13T21:12:35.210Z,94832.63
2023-05-13T21:15:02.828Z,94823.34
2023-05-13T21:17:30.550Z,94827.94
2023-05-13T21:19:58.361Z,94819.22
2023-05-13T21:22:26.109Z,94821.09
2023-05-13T21:24:53.733Z,94824.34
2023-05-13T21:27:22.710Z,94807.66
2023-05-13T21:29:50.327Z,94808.19
2023-05-13T21:32:17.944Z,94812.19
2023-05-13T21:34:45.560Z,94816.44
2023-05-13T21:37:13.232Z,94806.78
2023-05-13T21:39:41.237Z,94816.22
2023-05-13T21:42:09.002Z,94809.06
2023-05-13T21:44:37.977Z,94821.25
2023-05-13T21:47:05.855Z,94814.59
2023-05-13T21:49:33.632Z,94822.44
2023-05-13T21:52:01.259Z,94819.34
2023-05-13T21:54:28.926Z,94818.97
2023-05-13T21:56:56.544Z,94816.16
2023-05-13T21:59:24.176Z,94817.66
2023-05-13T22:01:53.160Z,94813.22
2023-05-13T22:04:20.829Z,94811.84
2023-05-13T22:06:48.410Z,94809.28
2023-05-13T22:09:16.071Z,94815.41
2023-05-13T22:11:43.726Z,94811.63
2023-05-13T22:14:11.318Z,94821.03
2023-05-13T22:16:39.026Z,94811.94
2023-05-13T22:19:08.215Z,94811.09
2023-05-13T22:21:35.967Z,94816.22
2023-05-13T22:24:04.995Z,94816.38
2023-05-13T22:26:32.680Z,94811.91
2023-05-13T22:29:00.324Z,94813.09
2023-05-13T22:31:27.967Z,94814.41
2023-05-13T22:33:55.614Z,94814.41
2023-05-13T22:36:24.535Z,94815.41
2023-05-13T22:38:52.143Z,94813.91
2023-05-13T22:41:23.544Z,94810.44
2023-05-13T22:43:51.290Z,94820.84
2023-05-13T22:46:18.912Z,94814.31
2023-05-13T22:48:46.586Z,94809.97
2023-05-13T22:51:14.231Z,94808.31
2023-05-13T22:53:43.226Z,94802.88
2023-05-13T22:56:10.810Z,94796.84
2023-05-13T22:58:38.430Z,94793.28
2023-05-13T23:01:06.073Z,94794.13
2023-05-13T23:03:33.696Z,94797.59
2023-05-13T23:06:01.277Z,94796.75
2023-05-13T23:08:28.900Z,94799.25
2023-05-13T23:10:58.075Z,94792.16
2023-05-13T23:13:25.904Z,94791.31
2023-05-13T23:15:53.523Z,94787.28
2023-05-13T23:18:21.164Z,94780.53
2023-05-13T23:20:50.661Z,94773.19
2023-05-13T23:23:18.330Z,94776.22
2023-05-13T23:25:45.994Z,94773.84
2023-05-13T23:28:15.135Z,94772.53
2023-05-13T23:30:43.264Z,94771.19
2023-05-13T23:33:10.896Z,94770.13
2023-05-13T23:35:38.529Z,94771.81
2023-05-13T23:38:06.167Z,94763.13
2023-05-13T23:40:33.770Z,94768.56
2023-05-13T23:43:01.370Z,94770.22
2023-05-13T23:45:30.343Z,94766.19
2023-05-13T23:47:58.038Z,94762.94
2023-05-13T23:50:25.838Z,94763.53
2023-05-13T23:52:53.691Z,94764.69
2023-05-13T23:55:21.512Z,94763.38
2023-05-13T23:57:49.173Z,94757.94
